Time;durP1;ratioP1;P1;durP2;ratioP2;P2;SDS_P1;SDS_P2;PMS_P1;PMS_P2;Temp;Humidity;BMP_temperature;BMP_pressure;BME280_temperature;BME280_humidity;BME280_pressure;Samples;Min_cycle;Max_cycle;Signal;HPM_P1;HPM_P2
2022/02/26 00:02:17;;;;;;;4.97;3.00;;;2.60;99.90;;;;;;6128738;23;20380;-90
2022/02/26 00:04:42;;;;;;;4.27;3.03;;;2.50;99.90;;;;;;6123127;23;20734;-88
2022/02/26 00:07:11;;;;;;;10.67;3.93;;;2.60;99.90;;;;;;6128246;23;20420;-89
2022/02/26 00:09:42;;;;;;;4.40;2.77;;;2.60;99.90;;;;;;6127611;23;20495;-89
2022/02/26 00:12:10;;;;;;;5.10;3.00;;;2.60;99.90;;;;;;6127322;23;20428;-89
2022/02/26 00:14:35;;;;;;;4.03;3.00;;;2.60;99.90;;;;;;6126859;23;20395;-89
2022/02/26 00:17:05;;;;;;;8.30;3.27;;;2.50;99.90;;;;;;6127830;23;20398;-89
2022/02/26 00:19:32;;;;;;;3.80;2.87;;;2.60;99.90;;;;;;6097551;23;20204;-88
2022/02/26 00:22:04;;;;;;;6.60;2.53;;;2.70;99.90;;;;;;6101759;23;20403;-89
2022/02/26 00:24:43;;;;;;;6.50;2.90;;;2.70;99.90;;;;;;6099570;23;20389;-89
2022/02/26 00:27:08;;;;;;;4.07;3.03;;;2.90;99.90;;;;;;6098150;23;20402;-88
2022/02/26 00:29:34;;;;;;;5.23;3.20;;;3.00;99.90;;;;;;6096039;23;20389;-89
2022/02/26 00:32:02;;;;;;;4.43;2.80;;;3.10;99.90;;;;;;6098251;23;20181;-88
2022/02/26 00:34:29;;;;;;;3.90;3.00;;;3.00;99.90;;;;;;6097922;23;20391;-89
2022/02/26 00:36:57;;;;;;;8.43;3.83;;;3.00;99.90;;;;;;6100545;23;20388;-88
2022/02/26 00:39:23;;;;;;;4.87;3.67;;;3.00;99.90;;;;;;6099818;23;20396;-89
2022/02/26 00:41:58;;;;;;;5.13;3.73;;;3.30;99.90;;;;;;6102637;23;20834;-89
2022/02/26 00:44:23;;;;;;;4.33;3.27;;;3.40;99.90;;;;;;6099365;23;20607;-88
2022/02/26 00:46:55;;;;;;;4.90;3.57;;;3.10;99.90;;;;;;6098690;23;20451;-89
2022/02/26 00:52:11;;;;;;;3.60;3.10;;;3.10;99.90;;;;;;6127948;23;20906;-89
2022/02/26 00:54:36;;;;;;;3.90;3.30;;;3.50;99.90;;;;;;6099270;23;20412;-89
2022/02/26 00:57:08;;;;;;;9.83;4.00;;;3.20;99.90;;;;;;6099957;23;20384;-88
2022/02/26 00:59:53;;;;;;;8.67;4.23;;;3.20;99.90;;;;;;6099185;23;20733;-88
2022/02/26 01:02:19;;;;;;;7.40;3.63;;;3.20;99.90;;;;;;6095537;23;20373;-88
2022/02/26 01:04:45;;;;;;;5.20;3.17;;;3.20;99.90;;;;;;6094745;23;20418;-89
2022/02/26 01:07:11;;;;;;;5.30;2.80;;;3.20;99.90;;;;;;6097564;23;20381;-89
2022/02/26 01:09:44;;;;;;;9.00;2.80;;;3.30;99.90;;;;;;6097806;23;20487;-88
2022/02/26 01:12:11;;;;;;;5.53;2.43;;;3.30;99.90;;;;;;6098061;23;20692;-88
2022/02/26 01:14:38;;;;;;;6.70;2.90;;;3.30;99.90;;;;;;6094217;23;21118;-88
2022/02/26 01:17:06;;;;;;;7.70;3.10;;;3.40;99.90;;;;;;6095568;23;20470;-88
2022/02/26 01:19:31;;;;;;;5.40;3.00;;;3.40;99.90;;;;;;6097908;23;20399;-88
2022/02/26 01:21:57;;;;;;;7.97;3.00;;;3.40;99.90;;;;;;6096884;23;20401;-88
2022/02/26 01:24:23;;;;;;;3.23;2.50;;;3.40;99.90;;;;;;6099288;23;20171;-89
2022/02/26 01:26:49;;;;;;;4.90;2.60;;;3.40;99.90;;;;;;6103897;23;20452;-89
2022/02/26 01:29:15;;;;;;;6.60;3.20;;;3.50;99.90;;;;;;6095927;23;20871;-89
2022/02/26 01:31:41;;;;;;;5.93;2.60;;;3.40;99.90;;;;;;6095275;23;20525;-88
2022/02/26 01:34:07;;;;;;;3.43;2.43;;;3.40;99.90;;;;;;6094902;23;20954;-89
2022/02/26 01:36:34;;;;;;;5.40;3.30;;;3.30;99.90;;;;;;6096766;23;20367;-89
2022/02/26 01:39:03;;;;;;;8.30;3.30;;;3.30;99.90;;;;;;6099751;23;20661;-89
2022/02/26 01:41:30;;;;;;;4.30;2.50;;;3.30;99.90;;;;;;6098041;23;20430;-90
2022/02/26 01:43:56;;;;;;;4.90;2.50;;;3.40;99.90;;;;;;6098119;23;20493;-90
2022/02/26 01:46:22;;;;;;;7.80;3.10;;;3.50;99.90;;;;;;6100368;23;20596;-90
2022/02/26 01:48:48;;;;;;;8.73;3.10;;;3.40;99.90;;;;;;6097475;23;21057;-89
2022/02/26 01:51:13;;;;;;;6.20;2.80;;;3.40;99.90;;;;;;6097424;23;20185;-89
2022/02/26 01:53:39;;;;;;;7.43;2.90;;;3.40;99.90;;;;;;6097460;23;20172;-88
2022/02/26 01:56:07;;;;;;;4.00;3.03;;;3.40;99.90;;;;;;6098965;23;20552;-88
2022/02/26 01:58:33;;;;;;;6.17;3.00;;;3.40;99.90;;;;;;6095297;23;20381;-89
2022/02/26 02:00:59;;;;;;;5.40;3.10;;;3.40;99.90;;;;;;6097331;23;20858;-89
2022/02/26 02:03:25;;;;;;;7.70;3.23;;;3.40;99.90;;;;;;6098705;23;20713;-88
2022/02/26 02:05:50;;;;;;;5.30;2.90;;;3.40;99.90;;;;;;6097337;23;20513;-89
2022/02/26 02:08:16;;;;;;;4.73;2.83;;;3.40;99.90;;;;;;6098398;23;20746;-88
2022/02/26 02:10:42;;;;;;;5.00;3.03;;;3.50;99.90;;;;;;6099362;23;20172;-89
2022/02/26 02:13:08;;;;;;;5.00;2.53;;;3.40;99.90;;;;;;6098644;23;20189;-88
2022/02/26 02:15:41;;;;;;;3.90;2.70;;;3.40;99.90;;;;;;6098082;23;20725;-89
2022/02/26 02:18:09;;;;;;;6.20;2.83;;;3.40;99.90;;;;;;6109453;23;20404;-89
2022/02/26 02:20:35;;;;;;;3.00;2.70;;;3.80;99.90;;;;;;6127975;23;20483;-89
2022/02/26 02:23:04;;;;;;;5.07;3.20;;;3.40;99.90;;;;;;6128377;23;20395;-88
2022/02/26 02:25:35;;;;;;;8.43;3.97;;;3.30;99.90;;;;;;6128269;23;20659;-89
2022/02/26 02:28:26;;;;;;;7.30;3.20;;;3.40;99.90;;;;;;6152282;23;21342;-89
2022/02/26 02:30:54;;;;;;;4.80;3.03;;;3.30;99.90;;;;;;6127425;23;20446;-90
2022/02/26 02:33:23;;;;;;;6.13;3.67;;;3.80;99.90;;;;;;6125975;23;20506;-88
2022/02/26 02:35:51;;;;;;;5.53;2.97;;;3.40;99.90;;;;;;6126789;23;20569;-89
2022/02/26 02:38:17;;;;;;;7.03;3.40;;;3.30;99.90;;;;;;6126515;23;20398;-89
2022/02/26 02:40:48;;;;;;;5.47;3.40;;;3.30;99.90;;;;;;6124255;23;20777;-89
2022/02/26 02:43:23;;;;;;;5.20;3.53;;;3.30;99.90;;;;;;6155488;23;20442;-89
2022/02/26 02:45:50;;;;;;;9.03;3.53;;;3.40;99.90;;;;;;6126224;23;20387;-89
2022/02/26 02:48:15;;;;;;;7.43;3.83;;;3.50;99.90;;;;;;6125172;23;20454;-89
2022/02/26 02:50:42;;;;;;;9.27;3.40;;;3.40;99.90;;;;;;6127224;23;20388;-90
2022/02/26 02:53:08;;;;;;;4.10;3.57;;;3.50;99.90;;;;;;6126116;23;20188;-89
2022/02/26 02:55:36;;;;;;;6.03;3.60;;;3.50;99.90;;;;;;6127323;23;20877;-90
2022/02/26 02:58:02;;;;;;;7.40;3.40;;;3.50;99.90;;;;;;6128009;23;20170;-89
2022/02/26 03:00:29;;;;;;;5.80;3.97;;;3.60;99.90;;;;;;6126058;23;20455;-89
2022/02/26 03:02:54;;;;;;;4.13;3.10;;;3.60;99.90;;;;;;6124365;23;20397;-89
2022/02/26 03:05:37;;;;;;;4.30;3.50;;;3.60;99.90;;;;;;6124383;23;20388;-89
2022/02/26 03:08:03;;;;;;;9.63;5.57;;;3.60;99.90;;;;;;6125548;23;20804;-89
2022/02/26 03:10:29;;;;;;;8.37;4.23;;;3.60;99.90;;;;;;6127511;23;20380;-88
2022/02/26 03:12:54;;;;;;;6.83;3.77;;;3.60;99.90;;;;;;6128985;23;20194;-89
2022/02/26 03:15:22;;;;;;;6.07;3.90;;;3.50;99.90;;;;;;6126059;23;20210;-89
2022/02/26 03:17:48;;;;;;;5.87;3.73;;;3.40;99.90;;;;;;6121570;23;20161;-89
2022/02/26 03:20:14;;;;;;;5.90;3.77;;;3.50;99.90;;;;;;6127284;23;20700;-89
2022/02/26 03:22:39;;;;;;;7.20;3.97;;;3.70;99.90;;;;;;6126816;23;20400;-87
2022/02/26 03:25:06;;;;;;;8.40;4.03;;;3.40;99.90;;;;;;6125097;23;20499;-88
2022/02/26 03:27:31;;;;;;;16.20;4.23;;;3.30;99.90;;;;;;6122758;23;20258;-88
2022/02/26 03:29:59;;;;;;;10.90;3.70;;;3.20;99.90;;;;;;6125305;23;20384;-88
2022/02/26 03:32:25;;;;;;;8.23;4.10;;;3.30;99.90;;;;;;6125597;23;20184;-87
2022/02/26 03:34:51;;;;;;;6.33;3.77;;;3.30;99.90;;;;;;6124884;23;20854;-88
2022/02/26 03:37:17;;;;;;;8.93;4.40;;;3.30;99.90;;;;;;6124464;23;20402;-88
2022/02/26 03:39:42;;;;;;;10.20;4.50;;;3.30;99.90;;;;;;6125212;23;20190;-88
2022/02/26 03:42:09;;;;;;;19.77;10.33;;;3.30;99.90;;;;;;6126483;23;20580;-87
2022/02/26 03:44:35;;;;;;;11.43;5.40;;;3.20;99.90;;;;;;6122973;23;20161;-88
2022/02/26 03:47:03;;;;;;;8.83;4.50;;;3.50;99.90;;;;;;6124648;23;20956;-87
2022/02/26 03:49:29;;;;;;;7.97;4.60;;;3.30;99.90;;;;;;6124461;23;20425;-87
2022/02/26 03:51:55;;;;;;;12.87;5.33;;;3.30;99.90;;;;;;6124286;23;20427;-88
2022/02/26 03:54:21;;;;;;;7.93;4.47;;;3.70;99.90;;;;;;6126116;23;20795;-88
2022/02/26 03:56:47;;;;;;;5.80;5.03;;;3.30;99.90;;;;;;6135015;23;20647;-88
2022/02/26 03:59:13;;;;;;;8.10;4.77;;;3.30;99.90;;;;;;6129169;23;20426;-89
2022/02/26 04:01:39;;;;;;;10.57;5.50;;;3.30;99.90;;;;;;6124959;23;20871;-89
2022/02/26 04:04:05;;;;;;;9.60;6.00;;;3.30;99.90;;;;;;6123235;23;20929;-88
2022/02/26 04:06:30;;;;;;;9.87;5.83;;;3.20;99.90;;;;;;6125030;23;20162;-89
2022/02/26 04:08:56;;;;;;;13.70;7.20;;;3.20;99.90;;;;;;6124251;23;20914;-89
2022/02/26 04:11:25;;;;;;;10.57;6.80;;;3.20;99.90;;;;;;6124844;23;20642;-89
2022/02/26 04:13:51;;;;;;;11.27;5.80;;;3.30;99.90;;;;;;6125872;23;20168;-89
2022/02/26 04:16:16;;;;;;;10.47;6.00;;;3.20;99.90;;;;;;6125301;23;20384;-89
2022/02/26 04:18:42;;;;;;;12.77;6.03;;;3.20;99.90;;;;;;6122703;23;20274;-88
2022/02/26 04:21:07;;;;;;;12.40;5.90;;;3.10;99.90;;;;;;6126060;23;20246;-88
2022/02/26 04:23:34;;;;;;;9.23;6.10;;;3.20;99.90;;;;;;6124990;23;20261;-88
2022/02/26 04:26:00;;;;;;;11.20;6.60;;;3.00;99.90;;;;;;6124511;23;20537;-88
2022/02/26 04:28:25;;;;;;;12.00;6.70;;;3.00;99.90;;;;;;6127906;23;20491;-89
2022/02/26 04:30:51;;;;;;;13.00;7.13;;;3.00;99.90;;;;;;6129329;23;20159;-89
2022/02/26 04:33:17;;;;;;;10.70;6.67;;;3.00;99.90;;;;;;6128378;23;20630;-90
2022/02/26 04:35:43;;;;;;;12.17;6.50;;;3.30;99.90;;;;;;6127046;23;20718;-90
2022/02/26 04:38:08;;;;;;;9.07;6.80;;;3.00;99.90;;;;;;6129220;23;20790;-89
2022/02/26 04:40:34;;;;;;;9.87;6.23;;;3.10;99.90;;;;;;6129757;23;20414;-88
2022/02/26 04:43:00;;;;;;;13.07;7.07;;;3.10;99.90;;;;;;6128712;23;20167;-88
2022/02/26 04:45:25;;;;;;;12.20;6.73;;;3.00;99.90;;;;;;6127043;23;20167;-88
2022/02/26 04:47:52;;;;;;;11.63;7.00;;;2.80;99.90;;;;;;6126732;23;20167;-88
2022/02/26 04:50:18;;;;;;;13.50;6.27;;;2.90;99.90;;;;;;6126789;23;20160;-88
2022/02/26 04:52:45;;;;;;;13.40;6.60;;;2.70;99.90;;;;;;6127030;23;20552;-89
2022/02/26 04:55:12;;;;;;;10.77;6.80;;;2.90;99.90;;;;;;6127871;23;20421;-88
2022/02/26 04:57:41;;;;;;;11.83;6.30;;;2.90;99.90;;;;;;6127545;23;20409;-88
2022/02/26 05:00:09;;;;;;;10.63;6.77;;;2.90;99.90;;;;;;6129490;23;20656;-89
2022/02/26 05:02:36;;;;;;;9.97;6.17;;;2.80;99.90;;;;;;6129456;23;20399;-88
2022/02/26 05:05:04;;;;;;;16.73;6.43;;;2.70;99.90;;;;;;6127046;23;20399;-87
2022/02/26 05:07:42;;;;;;;17.40;5.97;;;2.70;99.90;;;;;;6126983;23;20505;-87
2022/02/26 05:10:17;;;;;;;9.03;6.10;;;2.80;99.90;;;;;;6128642;23;20998;-87
2022/02/26 05:12:44;;;;;;;10.30;5.80;;;2.70;99.90;;;;;;6125645;23;20451;-89
2022/02/26 05:15:13;;;;;;;12.03;6.23;;;2.70;99.90;;;;;;6132359;23;20400;-88
2022/02/26 05:17:56;;;;;;;10.03;5.93;;;2.80;99.90;;;;;;6118822;23;20397;-88
2022/02/26 05:20:33;;;;;;;9.80;6.97;;;2.90;99.90;;;;;;6126027;23;20782;-88
2022/02/26 05:22:59;;;;;;;11.67;6.40;;;2.90;99.90;;;;;;6126535;23;20423;-88
2022/02/26 05:25:25;;;;;;;9.87;5.93;;;2.80;99.90;;;;;;6125976;23;20405;-88
2022/02/26 05:27:50;;;;;;;9.43;6.63;;;2.80;99.90;;;;;;6126861;23;20722;-88
2022/02/26 05:30:16;;;;;;;14.57;6.77;;;2.70;99.90;;;;;;6124608;23;20648;-88
2022/02/26 05:32:43;;;;;;;11.10;6.53;;;2.80;99.90;;;;;;6127124;23;20297;-88
2022/02/26 05:35:09;;;;;;;17.17;9.03;;;2.80;99.90;;;;;;6124709;23;20387;-88
2022/02/26 05:37:36;;;;;;;15.13;8.03;;;2.80;99.90;;;;;;6126845;23;20758;-87
2022/02/26 05:40:03;;;;;;;12.23;8.00;;;2.70;99.90;;;;;;6125463;23;20389;-89
2022/02/26 05:42:29;;;;;;;11.70;8.20;;;2.70;99.90;;;;;;6126174;23;20395;-88
2022/02/26 05:44:55;;;;;;;7.50;5.70;;;3.00;99.90;;;;;;6125394;23;20469;-88
2022/02/26 05:47:21;;;;;;;10.10;5.50;;;2.70;99.90;;;;;;6128832;23;20512;-89
2022/02/26 05:49:47;;;;;;;11.07;6.10;;;2.80;99.90;;;;;;6126318;23;20186;-89
2022/02/26 05:52:12;;;;;;;12.17;6.70;;;2.70;99.90;;;;;;6126279;23;20664;-88
2022/02/26 05:54:38;;;;;;;8.60;5.73;;;2.90;99.90;;;;;;6126868;23;20244;-89
2022/02/26 05:57:04;;;;;;;11.53;6.03;;;2.80;99.90;;;;;;6126382;23;20168;-88
2022/02/26 05:59:30;;;;;;;9.97;5.87;;;3.20;99.90;;;;;;6126143;23;20175;-89
2022/02/26 06:01:55;;;;;;;9.60;5.80;;;2.90;99.90;;;;;;6129013;23;20862;-89
2022/02/26 06:04:21;;;;;;;9.93;5.77;;;2.90;99.90;;;;;;6119580;23;20646;-89
2022/02/26 06:06:48;;;;;;;12.77;5.60;;;2.90;99.90;;;;;;6124375;23;20180;-89
2022/02/26 06:09:13;;;;;;;16.87;9.97;;;2.90;99.90;;;;;;6126711;23;20402;-87
2022/02/26 06:11:39;;;;;;;11.27;7.90;;;2.80;99.90;;;;;;6125235;23;20183;-87
2022/02/26 06:14:04;;;;;;;13.10;6.57;;;2.80;99.90;;;;;;6124053;23;20655;-88
2022/02/26 06:19:37;;;;;;;12.07;7.93;;;2.90;99.90;;;;;;6156053;23;20218;-89
2022/02/26 06:22:03;;;;;;;12.07;6.90;;;2.80;99.90;;;;;;6153368;23;20376;-89
2022/02/26 06:24:29;;;;;;;15.40;8.40;;;2.90;99.90;;;;;;6153571;23;20410;-89
2022/02/26 06:26:54;;;;;;;14.50;10.37;;;2.80;99.90;;;;;;6125326;23;20890;-89
2022/02/26 06:29:20;;;;;;;11.30;8.40;;;2.90;99.90;;;;;;6122575;23;20156;-89
2022/02/26 06:31:45;;;;;;;12.83;8.03;;;2.90;99.90;;;;;;6127662;23;20581;-89
2022/02/26 06:34:11;;;;;;;15.03;9.87;;;3.00;99.90;;;;;;6123559;23;20168;-89
2022/02/26 06:36:38;;;;;;;13.00;7.40;;;3.10;99.90;;;;;;6125638;23;20188;-88
2022/02/26 06:39:04;;;;;;;11.20;7.20;;;3.10;99.90;;;;;;6120501;23;20165;-89
2022/02/26 06:41:30;;;;;;;16.23;12.27;;;3.10;99.90;;;;;;6122208;23;20435;-88
2022/02/26 06:44:02;;;;;;;14.87;10.50;;;3.10;99.90;;;;;;6126613;23;20424;-88
2022/02/26 06:46:34;;;;;;;14.83;10.53;;;3.00;99.90;;;;;;6125235;23;20603;-89
2022/02/26 06:49:12;;;;;;;21.10;13.70;;;3.40;99.90;;;;;;6123519;23;20396;-88
2022/02/26 06:51:43;;;;;;;31.73;19.10;;;3.20;99.90;;;;;;6124026;23;20447;-90
2022/02/26 06:54:22;;;;;;;19.60;12.87;;;3.30;99.90;;;;;;6126914;23;20418;-90
2022/02/26 06:56:52;;;;;;;12.50;8.07;;;3.40;99.90;;;;;;6129177;23;20482;-89
2022/02/26 06:59:27;;;;;;;17.33;7.80;;;3.50;99.90;;;;;;6126711;23;20413;-89
2022/02/26 07:02:01;;;;;;;12.17;9.53;;;3.70;99.90;;;;;;6126669;23;20387;-89
2022/02/26 07:04:29;;;;;;;16.20;11.10;;;3.90;99.90;;;;;;6124556;23;20544;-90
2022/02/26 07:06:59;;;;;;;13.93;10.37;;;3.50;99.90;;;;;;6157431;23;20379;-91
2022/02/26 07:09:27;;;;;;;14.50;10.17;;;3.40;99.90;;;;;;6124579;23;20442;-90
2022/02/26 07:11:52;;;;;;;16.23;9.07;;;3.40;99.90;;;;;;6123972;23;20514;-89
2022/02/26 07:14:18;;;;;;;9.37;8.47;;;3.30;99.90;;;;;;6124525;23;20970;-89
2022/02/26 07:16:44;;;;;;;14.33;8.70;;;3.50;99.90;;;;;;6130263;23;20388;-90
2022/02/26 07:19:09;;;;;;;10.93;9.30;;;3.60;99.90;;;;;;6129966;23;20187;-89
2022/02/26 07:21:36;;;;;;;16.73;7.60;;;3.70;99.90;;;;;;6130722;23;20635;-88
2022/02/26 07:24:02;;;;;;;20.83;8.47;;;3.80;99.90;;;;;;6132350;23;20539;-89
2022/02/26 07:26:50;;;;;;;11.43;6.87;;;4.00;99.90;;;;;;6133686;23;20387;-91
2022/02/26 07:29:27;;;;;;;12.73;7.87;;;4.10;99.90;;;;;;6138010;23;20696;-91
2022/02/26 07:31:53;;;;;;;15.30;8.10;;;4.10;99.90;;;;;;6140750;23;20956;-91
2022/02/26 07:34:21;;;;;;;10.87;7.50;;;4.20;99.90;;;;;;6132435;23;20403;-90
2022/02/26 07:37:05;;;;;;;13.07;7.87;;;4.30;99.90;;;;;;6140267;23;20156;-90
2022/02/26 07:39:31;;;;;;;14.93;9.53;;;4.30;99.90;;;;;;6134375;23;20401;-90
2022/02/26 07:41:57;;;;;;;25.43;14.40;;;4.30;99.90;;;;;;6135437;23;21183;-92
2022/02/26 07:44:22;;;;;;;17.43;11.80;;;4.00;99.90;;;;;;6133111;23;20602;-90
2022/02/26 07:46:51;;;;;;;20.07;7.60;;;4.10;99.90;;;;;;6133408;23;20160;-91
2022/02/26 07:49:21;;;;;;;17.97;8.43;;;4.30;99.90;;;;;;6106698;23;20531;-90
2022/02/26 07:51:47;;;;;;;13.93;8.67;;;4.50;99.90;;;;;;6133389;23;20436;-90
2022/02/26 07:54:14;;;;;;;17.30;8.00;;;4.80;99.90;;;;;;6132709;23;20404;-89
2022/02/26 07:56:40;;;;;;;32.97;18.77;;;5.20;99.90;;;;;;6131142;23;20159;-89
2022/02/26 07:59:05;;;;;;;14.27;8.03;;;4.80;99.90;;;;;;6129549;23;20439;-90
2022/02/26 08:01:33;;;;;;;12.60;9.00;;;4.80;99.90;;;;;;6132560;23;20187;-91
2022/02/26 08:04:28;;;;;;;15.20;11.20;;;4.90;99.90;;;;;;6130980;23;20207;-90
2022/02/26 08:06:59;;;;;;;18.30;10.10;;;4.80;99.90;;;;;;6135085;23;20477;-91
2022/02/26 08:09:41;;;;;;;11.43;7.50;;;4.70;99.90;;;;;;6135528;23;20383;-90
2022/02/26 08:12:26;;;;;;;12.20;7.80;;;4.70;99.90;;;;;;6130216;23;20906;-91
2022/02/26 08:15:42;;;;;;;14.40;7.40;;;4.80;99.90;;;;;;6134204;23;20475;-92
2022/02/26 08:18:10;;;;;;;11.13;7.57;;;4.80;99.90;;;;;;6128665;23;20891;-90
2022/02/26 08:20:36;;;;;;;14.10;8.13;;;4.90;99.90;;;;;;6127814;23;20410;-90
2022/02/26 08:23:02;;;;;;;14.30;8.47;;;5.00;99.90;;;;;;6127570;23;20388;-90
2022/02/26 08:25:28;;;;;;;16.70;8.60;;;5.00;99.90;;;;;;6130469;23;20497;-90
2022/02/26 08:27:54;;;;;;;11.17;8.17;;;4.80;99.90;;;;;;6128278;23;20505;-90
2022/02/26 08:30:21;;;;;;;15.77;9.40;;;5.00;99.90;;;;;;6129368;23;20929;-90
2022/02/26 08:32:47;;;;;;;10.97;8.50;;;5.40;99.90;;;;;;6128250;23;20440;-90
2022/02/26 08:35:14;;;;;;;11.03;7.90;;;5.60;99.90;;;;;;6105634;23;20484;-89
2022/02/26 08:38:05;;;;;;;14.50;8.77;;;5.80;99.90;;;;;;6131577;23;20394;-91
2022/02/26 08:40:33;;;;;;;12.10;8.17;;;5.50;99.90;;;;;;6128913;23;20404;-90
2022/02/26 08:43:01;;;;;;;10.50;7.37;;;5.60;99.90;;;;;;6131311;23;20395;-90
2022/02/26 08:45:30;;;;;;;12.47;8.20;;;5.60;99.90;;;;;;6130371;23;20395;-90
2022/02/26 08:47:55;;;;;;;16.40;8.33;;;5.80;99.90;;;;;;6128178;23;20451;-88
2022/02/26 08:50:22;;;;;;;11.17;7.20;;;5.80;99.90;;;;;;6128382;23;20892;-90
2022/02/26 08:52:48;;;;;;;12.63;8.70;;;5.50;99.90;;;;;;6127901;23;20199;-89
2022/02/26 08:55:27;;;;;;;9.57;7.83;;;5.30;99.90;;;;;;6154018;23;20439;-90
2022/02/26 08:57:56;;;;;;;15.03;8.30;;;5.30;99.90;;;;;;6127844;23;20399;-90
2022/02/26 09:00:28;;;;;;;15.33;7.37;;;5.40;99.90;;;;;;6154101;23;20158;-90
2022/02/26 09:02:55;;;;;;;14.07;6.00;;;5.50;99.90;;;;;;6133888;23;20399;-90
2022/02/26 09:05:25;;;;;;;10.70;5.57;;;5.50;99.90;;;;;;6127528;23;20392;-91
2022/02/26 09:07:51;;;;;;;11.93;7.30;;;5.30;99.90;;;;;;6128290;23;21086;-88
2022/02/26 09:10:22;;;;;;;13.13;6.20;;;5.20;99.90;;;;;;6124579;23;20652;-89
2022/02/26 09:12:57;;;;;;;10.10;5.10;;;4.90;99.90;;;;;;6125426;23;20714;-87
2022/02/26 09:15:23;;;;;;;7.27;4.90;;;5.30;99.90;;;;;;6125121;23;20903;-87
2022/02/26 09:17:52;;;;;;;11.77;5.53;;;5.30;99.90;;;;;;6124379;23;20168;-87
2022/02/26 09:20:18;;;;;;;9.53;5.43;;;5.60;99.90;;;;;;6125500;23;20496;-88
2022/02/26 09:22:46;;;;;;;9.43;6.23;;;5.80;99.90;;;;;;6126644;23;20722;-89
2022/02/26 09:25:15;;;;;;;8.67;6.70;;;6.40;99.90;;;;;;6125718;23;20359;-89
2022/02/26 09:27:43;;;;;;;8.37;6.50;;;6.10;99.90;;;;;;6126638;23;20391;-89
2022/02/26 09:30:12;;;;;;;14.83;6.60;;;6.10;99.90;;;;;;6128148;23;20400;-89
2022/02/26 09:32:38;;;;;;;12.03;5.60;;;6.40;99.90;;;;;;6125932;23;20941;-89
2022/02/26 09:35:05;;;;;;;13.27;5.70;;;6.90;99.90;;;;;;6126551;23;20710;-89
2022/02/26 09:37:31;;;;;;;7.73;5.53;;;7.40;99.90;;;;;;6128022;23;20395;-89
2022/02/26 09:39:59;;;;;;;11.37;4.33;;;7.50;99.90;;;;;;6127787;23;20470;-89
2022/02/26 09:42:29;;;;;;;6.73;3.60;;;7.50;98.80;;;;;;6127962;23;20184;-89
2022/02/26 09:44:54;;;;;;;8.83;3.80;;;7.80;96.50;;;;;;6124685;23;20848;-88
2022/02/26 09:47:21;;;;;;;8.03;4.03;;;7.60;95.80;;;;;;6123918;23;20828;-88
2022/02/26 09:49:57;;;;;;;9.13;3.60;;;7.40;96.00;;;;;;6122785;23;20621;-89
2022/02/26 09:52:25;;;;;;;4.20;1.87;;;7.10;98.30;;;;;;6132252;23;20439;-94
2022/02/26 09:54:51;;;;;;;4.70;2.10;;;6.50;95.90;;;;;;6139271;23;20392;-92
2022/02/26 09:57:18;;;;;;;5.17;2.20;;;6.10;94.40;;;;;;6131025;23;20438;-92
2022/02/26 09:59:45;;;;;;;5.60;3.10;;;5.90;95.30;;;;;;6135215;23;20415;-94
2022/02/26 10:02:11;;;;;;;7.10;3.20;;;6.20;98.30;;;;;;6134835;23;20406;-95
2022/02/26 10:04:53;;;;;;;5.83;3.50;;;6.40;98.00;;;;;;6133864;23;20536;-95
2022/02/26 10:07:21;;;;;;;4.70;2.77;;;6.80;97.50;;;;;;6144401;23;20391;-91
2022/02/26 10:09:46;;;;;;;5.93;2.30;;;6.70;95.70;;;;;;6140423;23;20388;-92
2022/02/26 10:12:28;;;;;;;3.87;2.60;;;6.80;95.10;;;;;;6135499;23;20447;-90
2022/02/26 10:14:59;;;;;;;8.17;2.90;;;6.80;95.60;;;;;;6135709;23;20256;-89
2022/02/26 10:17:32;;;;;;;5.80;2.77;;;6.80;95.40;;;;;;6132690;23;20449;-89
2022/02/26 10:20:12;;;;;;;6.80;2.60;;;6.70;95.60;;;;;;6133832;23;20824;-89
2022/02/26 10:22:44;;;;;;;7.33;2.57;;;6.60;96.40;;;;;;6126589;23;20941;-89
2022/02/26 10:25:37;;;;;;;3.53;1.93;;;6.30;96.80;;;;;;6131554;23;20403;-89
2022/02/26 10:28:10;;;;;;;5.70;2.00;;;6.20;96.20;;;;;;6126575;23;20406;-89
2022/02/26 10:30:41;;;;;;;4.43;1.93;;;6.20;96.00;;;;;;6122802;23;20424;-89
2022/02/26 10:33:25;;;;;;;4.80;1.90;;;6.00;96.20;;;;;;6154706;23;20438;-91
2022/02/26 10:35:59;;;;;;;4.23;1.60;;;5.80;96.90;;;;;;6124843;23;20466;-89
2022/02/26 10:38:28;;;;;;;4.00;1.50;;;6.20;95.90;;;;;;6125021;23;20587;-88
2022/02/26 10:41:00;;;;;;;5.73;1.40;;;6.30;94.20;;;;;;6132618;23;20469;-88
2022/02/26 10:43:48;;;;;;;5.40;1.70;;;6.40;94.10;;;;;;6129490;23;20406;-89
2022/02/26 10:46:28;;;;;;;8.60;1.67;;;6.60;93.70;;;;;;6127735;23;20776;-88
2022/02/26 10:48:57;;;;;;;5.97;2.00;;;6.70;94.00;;;;;;6128595;23;20981;-87
2022/02/26 10:51:31;;;;;;;4.73;1.63;;;7.40;93.50;;;;;;6126703;23;20762;-88
2022/02/26 10:53:58;;;;;;;4.20;1.23;;;8.30;91.60;;;;;;6125855;23;20541;-88
2022/02/26 10:56:37;;;;;;;3.80;0.97;;;8.60;87.10;;;;;;6128818;23;20382;-88
2022/02/26 10:59:04;;;;;;;3.67;1.33;;;8.80;82.80;;;;;;6126948;23;20383;-87
2022/02/26 11:01:30;;;;;;;6.60;2.33;;;9.10;83.30;;;;;;6126392;23;20393;-87
2022/02/26 11:03:56;;;;;;;5.40;1.40;;;9.40;79.20;;;;;;6123451;23;20402;-87
2022/02/26 11:06:24;;;;;;;2.33;1.00;;;9.20;85.40;;;;;;6125359;23;20684;-88
2022/02/26 11:08:50;;;;;;;3.40;1.40;;;9.20;82.90;;;;;;6124007;23;20425;-89
2022/02/26 11:11:18;;;;;;;4.90;2.40;;;9.30;84.20;;;;;;6127951;23;20406;-88
2022/02/26 11:13:45;;;;;;;3.30;1.10;;;9.50;79.60;;;;;;6123957;23;20742;-88
2022/02/26 11:16:12;;;;;;;7.47;1.37;;;9.80;78.00;;;;;;6127813;23;20884;-88
2022/02/26 11:18:48;;;;;;;6.57;1.70;;;9.60;78.60;;;;;;6125190;23;20435;-88
2022/02/26 11:21:16;;;;;;;2.70;1.10;;;9.60;77.50;;;;;;6127204;23;20697;-88
2022/02/26 11:23:43;;;;;;;4.13;1.33;;;9.70;75.40;;;;;;6125811;23;20414;-88
2022/02/26 11:26:10;;;;;;;4.60;1.63;;;10.00;73.30;;;;;;6126967;23;20542;-88
2022/02/26 11:28:54;;;;;;;4.00;1.87;;;10.70;73.60;;;;;;6121038;23;20391;-88
2022/02/26 11:31:37;;;;;;;2.23;1.70;;;11.00;68.80;;;;;;6124079;23;20513;-88
2022/02/26 11:34:03;;;;;;;3.83;1.60;;;10.50;68.00;;;;;;6120873;23;20450;-89
2022/02/26 11:36:49;;;;;;;2.67;1.20;;;10.40;73.50;;;;;;6125114;23;20874;-90
2022/02/26 11:39:27;;;;;;;3.57;1.63;;;10.70;73.70;;;;;;6126677;23;20876;-90
2022/02/26 11:42:18;;;;;;;3.53;1.40;;;11.00;70.80;;;;;;6128472;23;20505;-90
2022/02/26 11:45:05;;;;;;;2.93;1.43;;;10.70;68.80;;;;;;6127362;23;20424;-89
2022/02/26 11:47:48;;;;;;;4.80;1.87;;;9.50;73.30;;;;;;6149568;23;20752;-89
2022/02/26 11:50:22;;;;;;;5.07;1.60;;;8.50;76.50;;;;;;6126991;23;20478;-89
2022/02/26 11:53:00;;;;;;;4.03;1.63;;;8.00;77.30;;;;;;6126782;23;20718;-89
2022/02/26 11:55:42;;;;;;;3.53;1.90;;;7.60;79.10;;;;;;6136713;23;20384;-89
2022/02/26 11:58:17;;;;;;;6.33;1.50;;;8.40;80.60;;;;;;6133030;23;20399;-90
2022/02/26 12:01:03;;;;;;;6.40;2.00;;;8.80;77.20;;;;;;6125861;23;20395;-89
2022/02/26 12:03:49;;;;;;;3.03;1.60;;;8.90;75.20;;;;;;6126908;23;20394;-90
2022/02/26 12:06:18;;;;;;;3.77;1.80;;;8.60;74.00;;;;;;6127218;23;20418;-90
2022/02/26 12:08:48;;;;;;;4.03;1.27;;;8.30;75.80;;;;;;6154431;23;20399;-89
2022/02/26 12:11:20;;;;;;;6.17;1.87;;;7.80;75.60;;;;;;6127355;23;20428;-90
2022/02/26 12:13:53;;;;;;;2.30;1.10;;;7.60;75.20;;;;;;6126626;23;20453;-89
2022/02/26 12:16:22;;;;;;;3.20;1.30;;;7.80;80.10;;;;;;6126569;23;20389;-88
2022/02/26 12:18:59;;;;;;;4.10;1.17;;;7.70;81.10;;;;;;6124804;23;20768;-89
2022/02/26 12:21:32;;;;;;;3.27;1.30;;;7.80;79.80;;;;;;6127670;23;20395;-89
2022/02/26 12:24:05;;;;;;;9.83;2.13;;;7.80;80.80;;;;;;6129439;23;20390;-89
2022/02/26 12:26:41;;;;;;;3.50;1.20;;;8.60;81.50;;;;;;6126441;23;20419;-88
2022/02/26 12:29:07;;;;;;;4.30;1.47;;;9.20;79.80;;;;;;6130109;23;20451;-89
2022/02/26 12:31:43;;;;;;;3.17;1.20;;;9.20;76.70;;;;;;6126968;23;20391;-87
2022/02/26 12:34:10;;;;;;;2.30;1.27;;;9.70;74.10;;;;;;6128509;23;20411;-88
2022/02/26 12:37:15;;;;;;;3.83;1.60;;;9.50;77.20;;;;;;6126779;23;20456;-88
2022/02/26 12:39:47;;;;;;;2.80;1.47;;;10.60;67.10;;;;;;6135722;23;20833;-87
2022/02/26 12:42:40;;;;;;;2.70;1.20;;;10.80;67.70;;;;;;6129188;23;20396;-87
2022/02/26 12:45:09;;;;;;;2.77;1.57;;;10.00;70.00;;;;;;6134055;23;20380;-88
2022/02/26 12:47:36;;;;;;;3.90;1.30;;;10.10;73.40;;;;;;6127058;23;20693;-87
2022/02/26 12:50:04;;;;;;;4.73;1.47;;;10.50;70.80;;;;;;6126295;23;21188;-88
2022/02/26 12:52:32;;;;;;;2.87;1.17;;;10.20;69.90;;;;;;6127289;23;21242;-87
2022/02/26 12:54:58;;;;;;;2.33;1.40;;;10.10;71.80;;;;;;6128461;23;20478;-88
2022/02/26 12:57:32;;;;;;;2.73;1.33;;;9.80;71.00;;;;;;6124785;23;20480;-89
2022/02/26 12:59:58;;;;;;;2.50;1.30;;;10.00;69.60;;;;;;6129001;23;20180;-84
2022/02/26 13:02:24;;;;;;;4.00;1.17;;;9.80;74.10;;;;;;6125796;23;20799;-85
2022/02/26 13:04:59;;;;;;;5.00;1.40;;;10.30;75.60;;;;;;6127919;23;20637;-82
2022/02/26 13:07:28;;;;;;;2.23;1.30;;;10.80;72.30;;;;;;6122984;23;20158;-84
2022/02/26 13:09:56;;;;;;;4.07;1.27;;;11.10;70.50;;;;;;6126154;23;20382;-83
2022/02/26 13:12:24;;;;;;;4.17;1.33;;;11.20;70.90;;;;;;6123617;23;20481;-85